Time;durP1;ratioP1;P1;durP2;ratioP2;P2;SDS_P1;SDS_P2;PMS_P1;PMS_P2;Temp;Humidity;BMP_temperature;BMP_pressure;BME280_temperature;BME280_humidity;BME280_pressure;Samples;Min_cycle;Max_cycle;Signal;HPM_P1;HPM_P2
2023/09/22 00:01:45;;;;;;;2.05;0.88;;;;;;;19.29;100.00;100406.97;5054306;28;20055;-76
2023/09/22 00:04:11;;;;;;;2.15;1.95;;;;;;;19.46;100.00;100420.53;5048433;28;20037;-78
2023/09/22 00:06:36;;;;;;;1.83;1.05;;;;;;;19.50;100.00;100398.22;5058143;28;20075;-76
2023/09/22 00:09:02;;;;;;;1.13;0.95;;;;;;;18.81;100.00;100315.59;5057677;28;20512;-76
2023/09/22 00:11:27;;;;;;;1.17;1.05;;;;;;;18.85;100.00;100325.19;5053233;28;20140;-77
2023/09/22 00:13:53;;;;;;;12.30;1.17;;;;;;;19.45;100.00;100424.09;5063062;28;20071;-76
2023/09/22 00:16:18;;;;;;;1.08;1.05;;;;;;;19.63;100.00;100441.19;5061111;28;20453;-78
2023/09/22 00:18:44;;;;;;;0.38;0.38;;;;;;;19.14;100.00;100345.41;5064340;28;20066;-75
2023/09/22 00:21:09;;;;;;;1.00;0.77;;;;;;;18.98;100.00;100309.66;5061759;28;20102;-78
2023/09/22 00:23:35;;;;;;;2.70;2.42;;;;;;;18.91;100.00;100348.88;5069800;28;20491;-78
2023/09/22 00:26:02;;;;;;;0.98;0.98;;;;;;;19.55;100.00;100437.94;5068581;28;20046;-79
2023/09/22 00:28:27;;;;;;;0.57;0.57;;;;;;;19.75;100.00;100445.22;5065310;28;20147;-77
2023/09/22 00:30:53;;;;;;;0.93;0.82;;;;;;;19.70;100.00;100436.56;5061245;28;20120;-78
2023/09/22 00:33:18;;;;;;;0.65;0.65;;;;;;;19.10;100.00;100354.41;5066969;28;20833;-79
2023/09/22 00:35:44;;;;;;;1.52;1.33;;;;;;;18.84;100.00;100338.53;5049661;28;20077;-78
2023/09/22 00:38:10;;;;;;;7.50;1.60;;;;;;;19.23;100.00;100370.81;5068215;28;20035;-78
2023/09/22 00:40:36;;;;;;;0.20;0.20;;;;;;;19.75;100.00;100435.44;5068404;28;20062;-80
2023/09/22 00:43:09;;;;;;;4.07;1.48;;;;;;;19.09;100.00;100339.38;5060971;28;20136;-79
2023/09/22 00:45:47;;;;;;;1.05;1.00;;;;;;;18.90;100.00;100320.56;5054806;28;20496;-79
2023/09/22 00:48:22;;;;;;;2.78;2.25;;;;;;;19.30;100.00;100422.00;5061948;28;20492;-80
2023/09/22 00:50:48;;;;;;;0.95;0.50;;;;;;;19.12;100.00;100379.16;5062256;28;20071;-79
2023/09/22 00:53:15;;;;;;;0.60;0.60;;;;;;;19.14;100.00;100387.97;5060177;28;20029;-78
2023/09/22 00:55:40;;;;;;;10.90;1.27;;;;;;;18.75;100.00;100314.00;5067678;28;20079;-78
2023/09/22 00:58:06;;;;;;;0.80;0.75;;;;;;;18.66;100.00;100314.31;5062444;28;20712;-79
2023/09/22 01:00:33;;;;;;;1.95;0.93;;;;;;;19.24;100.00;100422.22;5057235;28;20109;-78
2023/09/22 01:02:59;;;;;;;0.35;0.32;;;;;;;18.12;100.00;100216.97;5060818;28;20048;-79
2023/09/22 01:05:25;;;;;;;0.30;0.30;;;;;;;18.19;100.00;100353.97;5025563;28;20130;-78
2023/09/22 01:07:51;;;;;;;1.15;1.08;;;;;;;18.20;100.00;100397.34;5048625;28;20044;-78
2023/09/22 01:10:17;;;;;;;8.88;2.58;;;;;;;17.63;100.00;100306.13;5041278;28;20099;-78
2023/09/22 01:12:42;;;;;;;0.80;0.65;;;;;;;17.71;100.00;100333.31;5044961;28;20516;-79
2023/09/22 01:15:09;;;;;;;1.13;1.02;;;;;;;17.75;100.00;100342.94;5044965;28;20045;-79
2023/09/22 01:17:35;;;;;;;3.22;3.03;;;;;;;17.40;100.00;100312.16;5046134;28;20036;-78
2023/09/22 01:20:00;;;;;;;4.88;1.52;;;;;;;17.00;100.00;100241.75;5065916;28;20036;-78
2023/09/22 01:22:26;;;;;;;0.55;0.40;;;;;;;17.94;100.00;100401.69;5068587;28;20048;-79
2023/09/22 01:24:51;;;;;;;3.28;1.98;;;;;;;17.41;100.00;100306.81;5061569;28;20448;-78
2023/09/22 01:27:18;;;;;;;0.30;0.30;;;;;;;17.50;100.00;100335.72;5060862;28;20049;-78
2023/09/22 01:29:43;;;;;;;0.85;0.85;;;;;;;17.85;100.00;100418.75;5060869;28;20590;-78
2023/09/22 01:32:09;;;;;;;0.40;0.32;;;;;;;17.27;100.00;100317.81;5061625;28;20028;-78
2023/09/22 01:34:35;;;;;;;0.30;0.30;;;;;;;17.43;100.00;100335.94;5062262;28;20102;-78
2023/09/22 01:37:07;;;;;;;0.90;0.90;;;;;;;17.79;100.00;100400.31;5062324;28;20756;-76
2023/09/22 01:39:33;;;;;;;1.33;1.23;;;;;;;17.30;100.00;100328.34;5065517;28;20044;-78
2023/09/22 01:41:59;;;;;;;1.05;0.90;;;;;;;17.39;100.00;100337.81;5060603;28;20196;-79
2023/09/22 01:44:25;;;;;;;0.70;0.70;;;;;;;18.06;100.00;100429.63;5065823;28;20037;-76
2023/09/22 01:46:50;;;;;;;0.85;0.85;;;;;;;18.05;100.00;100438.50;5060948;28;20136;-76
2023/09/22 01:49:16;;;;;;;2.00;1.65;;;;;;;17.95;100.00;100448.53;5058227;28;20071;-78
2023/09/22 01:51:42;;;;;;;1.35;1.02;;;;;;;17.89;100.00;100438.97;5066258;28;20492;-78
2023/09/22 01:54:07;;;;;;;1.08;0.73;;;;;;;17.90;100.00;100453.97;5075100;28;20048;-77
2023/09/22 01:56:34;;;;;;;1.23;0.82;;;;;;;17.63;100.00;100359.22;5041039;28;20082;-77
2023/09/22 01:58:59;;;;;;;0.35;0.28;;;;;;;18.01;100.00;100447.50;5048324;28;20025;-76
2023/09/22 02:01:25;;;;;;;0.90;0.90;;;;;;;17.37;100.00;100326.41;5041234;28;20052;-77
2023/09/22 02:03:53;;;;;;;1.80;0.98;;;;;;;17.32;100.00;100352.16;5040496;28;20418;-76
2023/09/22 02:06:19;;;;;;;0.90;0.85;;;;;;;17.87;100.00;100455.88;5030353;28;20512;-76
2023/09/22 02:08:44;;;;;;;0.68;0.68;;;;;;;17.22;100.00;100338.28;5037061;28;20061;-76
2023/09/22 02:11:11;;;;;;;0.82;0.82;;;;;;;17.60;100.00;100418.56;5033554;28;20037;-76
2023/09/22 02:13:37;;;;;;;1.23;0.93;;;;;;;17.16;100.00;100329.66;5039446;28;20041;-76
2023/09/22 02:16:03;;;;;;;1.42;1.33;;;;;;;17.66;100.00;100436.97;5041069;28;20519;-75
2023/09/22 02:18:29;;;;;;;1.02;0.90;;;;;;;17.68;100.00;100445.75;5039017;28;20053;-78
2023/09/22 02:20:54;;;;;;;1.38;1.23;;;;;;;17.28;100.00;100371.75;5035914;28;20037;-77
2023/09/22 02:23:21;;;;;;;0.57;0.50;;;;;;;17.92;100.00;100476.03;5032804;28;20436;-78
2023/09/22 02:25:46;;;;;;;0.80;0.80;;;;;;;18.03;100.00;100474.88;5039106;28;20144;-77
2023/09/22 02:28:12;;;;;;;0.50;0.32;;;;;;;17.48;100.00;100422.44;5038757;28;20048;-77
2023/09/22 02:30:37;;;;;;;1.77;1.67;;;;;;;17.71;100.00;100458.94;5018237;28;20037;-77
2023/09/22 02:33:04;;;;;;;0.40;0.40;;;;;;;17.53;100.00;100451.47;5038553;28;20075;-77
2023/09/22 02:35:29;;;;;;;2.50;1.38;;;;;;;17.68;100.00;100460.81;5034650;28;20045;-77
2023/09/22 02:37:57;;;;;;;1.45;1.35;;;;;;;17.85;100.00;100457.69;5042343;28;20476;-77
2023/09/22 02:40:22;;;;;;;2.35;1.10;;;;;;;17.60;100.00;100399.97;5038952;28;20052;-77
2023/09/22 02:42:48;;;;;;;0.50;0.50;;;;;;;18.08;100.00;100491.53;5039222;28;20052;-77
2023/09/22 02:45:14;;;;;;;4.38;4.18;;;;;;;17.89;100.00;100478.81;5033103;28;20053;-77
2023/09/22 02:47:41;;;;;;;1.95;1.65;;;;;;;17.46;100.00;100405.69;5041800;28;20041;-79
2023/09/22 02:50:12;;;;;;;2.20;1.75;;;;;;;17.43;100.00;100400.47;5044171;28;20101;-79
2023/09/22 02:52:39;;;;;;;0.75;0.75;;;;;;;17.85;100.00;100474.50;5035699;28;20045;-77
2023/09/22 02:55:07;;;;;;;2.85;1.05;;;;;;;17.93;100.00;100485.78;5052804;28;20160;-76
2023/09/22 02:57:33;;;;;;;0.20;0.20;;;;;;;17.35;100.00;100396.28;5039152;28;20063;-77
2023/09/22 02:59:59;;;;;;;1.85;1.75;;;;;;;18.03;100.00;100509.41;5044828;28;20692;-78
2023/09/22 03:02:24;;;;;;;0.73;0.38;;;;;;;17.84;100.00;100487.78;5046357;28;20032;-79
2023/09/22 03:04:50;;;;;;;1.15;1.05;;;;;;;17.33;100.00;100398.16;5016062;28;20045;-79
2023/09/22 03:07:15;;;;;;;1.65;1.42;;;;;;;17.77;100.00;100487.09;5019535;28;20049;-78
2023/09/22 03:09:41;;;;;;;1.67;1.58;;;;;;;17.28;100.00;100401.78;5027963;28;20563;-77
2023/09/22 03:12:06;;;;;;;1.25;1.10;;;;;;;17.24;100.00;100396.59;5027523;28;20045;-78
2023/09/22 03:14:32;;;;;;;1.65;0.93;;;;;;;17.82;100.00;100494.97;5026308;28;20570;-78
2023/09/22 03:16:59;;;;;;;0.77;0.65;;;;;;;17.34;100.00;100408.69;5022378;28;20410;-77
2023/09/22 03:19:25;;;;;;;1.00;0.73;;;;;;;17.82;100.00;100479.03;5013096;28;20045;-77
2023/09/22 03:21:50;;;;;;;2.63;1.92;;;;;;;17.94;100.00;100529.13;5025368;28;20060;-77
2023/09/22 03:24:16;;;;;;;0.43;0.38;;;;;;;17.28;100.00;100423.00;5026132;28;20041;-77
2023/09/22 03:26:41;;;;;;;2.05;1.60;;;;;;;17.27;100.00;100420.38;5026232;28;20087;-77
2023/09/22 03:29:07;;;;;;;1.10;1.02;;;;;;;17.61;100.00;100497.25;5019775;28;20037;-77
2023/09/22 03:31:32;;;;;;;1.27;1.17;;;;;;;17.35;100.00;100431.66;5017683;28;20050;-78
2023/09/22 03:33:58;;;;;;;0.82;0.82;;;;;;;17.35;100.00;100438.72;5024036;28;20042;-79
2023/09/22 03:36:24;;;;;;;1.02;0.95;;;;;;;17.33;100.00;100436.13;5017212;28;20057;-78
2023/09/22 03:38:51;;;;;;;1.52;1.40;;;;;;;17.33;100.00;100440.56;5016317;28;20064;-77
2023/09/22 03:41:18;;;;;;;0.88;0.73;;;;;;;17.78;100.00;100535.72;5015978;28;20056;-78
2023/09/22 03:43:43;;;;;;;1.10;0.73;;;;;;;17.47;100.00;100463.16;5027523;28;20131;-77
2023/09/22 03:46:10;;;;;;;0.45;0.43;;;;;;;17.36;100.00;100461.69;5015834;28;20571;-77
2023/09/22 03:48:40;;;;;;;3.60;1.85;;;;;;;17.03;100.00;100420.13;5038503;28;20084;-77
2023/09/22 03:51:06;;;;;;;0.40;0.40;;;;;;;17.08;100.00;100438.56;5023914;28;20056;-77
2023/09/22 03:53:31;;;;;;;1.20;0.90;;;;;;;16.89;100.00;100427.59;5018019;28;20025;-77
2023/09/22 03:55:57;;;;;;;0.85;0.85;;;;;;;17.02;100.00;100459.94;5022822;28;20102;-76
2023/09/22 03:58:25;;;;;;;0.38;0.30;;;;;;;16.89;100.00;100443.47;5040313;28;20045;-77
2023/09/22 04:00:52;;;;;;;0.52;0.45;;;;;;;17.78;100.00;100539.25;5037666;28;20041;-77
2023/09/22 04:03:18;;;;;;;0.65;0.65;;;;;;;17.02;100.00;100441.38;5018645;28;20073;-77
2023/09/22 04:05:44;;;;;;;1.15;1.00;;;;;;;17.65;100.00;100548.44;5033579;28;20034;-77
2023/09/22 04:08:10;;;;;;;2.10;1.67;;;;;;;16.90;100.00;100431.09;5042954;28;20033;-77
2023/09/22 04:10:35;;;;;;;0.47;0.47;;;;;;;17.50;100.00;100505.50;5045152;28;20052;-76
2023/09/22 04:13:02;;;;;;;0.38;0.38;;;;;;;17.52;100.00;100510.78;5038764;28;20056;-76
2023/09/22 04:15:27;;;;;;;0.57;0.57;;;;;;;17.41;100.00;100534.94;5040106;28;20045;-77
2023/09/22 04:17:53;;;;;;;2.05;1.85;;;;;;;17.03;100.00;100467.00;5046527;28;20055;-77
2023/09/22 04:20:28;;;;;;;5.47;4.95;;;;;;;16.81;100.00;100427.78;5041618;28;20033;-79
2023/09/22 04:22:58;;;;;;;1.33;0.70;;;;;;;17.27;100.00;100463.69;5044241;28;20439;-77
2023/09/22 04:25:36;;;;;;;1.60;1.50;;;;;;;17.82;100.00;100525.03;5045291;28;20052;-78
2023/09/22 04:28:17;;;;;;;2.65;2.17;;;;;;;17.35;100.00;100441.38;5036182;28;20050;-77
2023/09/22 04:30:43;;;;;;;1.00;0.82;;;;;;;18.09;100.00;100546.38;5015088;28;20678;-77
2023/09/22 04:33:10;;;;;;;1.90;1.70;;;;;;;17.38;100.00;100443.97;5040553;28;20105;-79
2023/09/22 04:35:37;;;;;;;0.55;0.50;;;;;;;17.34;100.00;100447.59;5034969;28;20040;-78
2023/09/22 04:38:04;;;;;;;1.30;1.20;;;;;;;17.93;100.00;100511.44;5042983;28;20067;-79
2023/09/22 04:40:36;;;;;;;3.67;1.30;;;;;;;17.72;100.00;100435.91;5042301;28;20063;-77
2023/09/22 04:43:08;;;;;;;0.57;0.57;;;;;;;17.83;100.00;100443.59;5042717;28;20140;-78
2023/09/22 04:45:40;;;;;;;0.65;0.65;;;;;;;17.29;100.00;100376.13;5039036;28;20056;-80
2023/09/22 04:48:10;;;;;;;1.13;0.88;;;;;;;18.00;100.00;100496.19;5029831;28;20048;-77
2023/09/22 04:50:36;;;;;;;1.33;1.23;;;;;;;17.94;100.00;100494.59;5044016;28;20091;-78
2023/09/22 04:53:04;;;;;;;1.05;0.82;;;;;;;17.38;100.00;100426.25;5037708;28;20044;-77
2023/09/22 04:55:31;;;;;;;1.05;0.95;;;;;;;18.01;100.00;100524.50;5035200;28;20049;-78
2023/09/22 04:57:56;;;;;;;0.32;0.32;;;;;;;17.19;100.00;100414.44;5051097;28;20049;-76
2023/09/22 05:00:24;;;;;;;1.40;1.25;;;;;;;17.32;100.00;100458.25;5058722;28;20090;-75
2023/09/22 05:02:53;;;;;;;1.08;0.98;;;;;;;17.88;100.00;100522.19;5063942;28;20058;-77
2023/09/22 05:05:19;;;;;;;1.45;1.35;;;;;;;17.96;100.00;100524.63;5040131;28;20029;-76
2023/09/22 05:07:45;;;;;;;1.58;1.33;;;;;;;18.07;100.00;100493.31;5061355;28;20048;-77
2023/09/22 05:10:11;;;;;;;1.67;0.95;;;;;;;17.97;100.00;100486.53;5055514;28;20049;-76
2023/09/22 05:12:37;;;;;;;1.38;1.27;;;;;;;17.39;100.00;100403.25;5056419;28;20319;-77
2023/09/22 05:15:04;;;;;;;1.52;1.05;;;;;;;17.52;100.00;100423.22;5047308;28;20048;-77
2023/09/22 05:17:30;;;;;;;1.45;1.33;;;;;;;17.61;100.00;100419.44;5058574;28;20107;-77
2023/09/22 05:19:55;;;;;;;1.27;1.17;;;;;;;17.56;100.00;100421.34;5049838;28;20039;-78
2023/09/22 05:22:21;;;;;;;0.68;0.57;;;;;;;17.61;100.00;100444.19;5048330;28;20057;-77
2023/09/22 05:24:47;;;;;;;1.70;1.60;;;;;;;17.63;100.00;100421.13;5044911;28;20056;-78
2023/09/22 05:27:14;;;;;;;0.60;0.60;;;;;;;17.58;100.00;100419.50;5055090;28;20048;-76
2023/09/22 05:29:41;;;;;;;1.63;1.50;;;;;;;18.31;100.00;100533.34;5052273;28;20056;-77
2023/09/22 05:32:06;;;;;;;1.63;1.15;;;;;;;17.68;100.00;100408.59;5061132;28;20032;-76
2023/09/22 05:34:33;;;;;;;1.83;1.70;;;;;;;17.67;100.00;100405.97;5062823;28;20102;-78
2023/09/22 05:37:00;;;;;;;0.88;0.73;;;;;;;18.41;100.00;100525.97;5061486;28;20126;-77
2023/09/22 05:39:26;;;;;;;3.58;2.03;;;;;;;18.11;100.00;100435.66;5039070;28;20044;-84
2023/09/22 05:41:52;;;;;;;4.32;2.25;;;;;;;18.10;100.00;100416.22;5052901;28;20048;-75
2023/09/22 05:44:17;;;;;;;1.02;0.95;;;;;;;18.93;100.00;100492.44;5046296;28;20109;-88
2023/09/22 05:46:44;;;;;;;2.92;1.70;;;;;;;19.10;100.00;100515.81;5053544;28;20049;-82
2023/09/22 05:49:14;;;;;;;0.45;0.45;;;;;;;17.92;100.00;100324.72;5060529;28;20072;-84
2023/09/22 05:51:43;;;;;;;0.77;0.77;;;;;;;18.50;100.00;100400.81;5053886;28;20044;-86
2023/09/22 05:54:09;;;;;;;1.52;1.42;;;;;;;18.80;100.00;100409.56;5043185;28;20044;-88
2023/09/22 05:56:35;;;;;;;2.17;1.65;;;;;;;19.77;100.00;100520.59;5055870;28;20045;-86
2023/09/22 05:59:01;;;;;;;1.65;1.55;;;;;;;19.79;100.00;100481.47;5039047;28;20045;-86
2023/09/22 06:01:27;;;;;;;1.80;1.42;;;;;;;19.85;100.00;100488.34;5044258;28;20102;-87
2023/09/22 06:03:53;;;;;;;1.17;0.95;;;;;;;20.02;100.00;100483.28;5051115;28;20048;-85
2023/09/22 06:06:19;;;;;;;1.20;1.10;;;;;;;19.32;100.00;100404.22;5058885;28;20099;-88
2023/09/22 06:08:46;;;;;;;2.65;2.45;;;;;;;19.97;100.00;100506.53;5057357;28;20633;-88
2023/09/22 06:11:13;;;;;;;1.40;1.30;;;;;;;19.45;100.00;100412.59;5040556;28;20064;-83
2023/09/22 06:13:40;;;;;;;2.45;2.22;;;;;;;19.97;100.00;100480.78;5054072;28;20073;-85
2023/09/22 06:16:05;;;;;;;1.35;1.23;;;;;;;20.19;100.00;100479.97;5061477;28;20079;-84
2023/09/22 06:18:32;;;;;;;1.50;1.40;;;;;;;19.51;100.00;100397.28;5030610;28;20077;-83
2023/09/22 06:21:00;;;;;;;15.40;1.55;;;;;;;19.39;100.00;100405.72;5060043;28;20044;-86
2023/09/22 06:23:30;;;;;;;1.58;1.48;;;;;;;19.73;100.00;100457.72;5062663;28;20085;-85
2023/09/22 06:26:02;;;;;;;2.22;1.83;;;;;;;19.71;100.00;100415.19;5046530;28;20048;-86
2023/09/22 06:28:27;;;;;;;5.00;3.92;;;;;;;19.97;100.00;100479.91;5063211;28;20044;-88
2023/09/22 06:30:59;;;;;;;1.23;1.13;;;;;;;19.82;100.00;100436.94;5067368;28;20068;-84
2023/09/22 06:33:24;;;;;;;4.93;2.92;;;;;;;19.80;100.00;100484.06;5055916;28;20091;-86
2023/09/22 06:35:57;;;;;;;2.50;2.30;;;;;;;20.10;100.00;100501.63;5059802;28;20040;-84
2023/09/22 06:38:23;;;;;;;1.92;1.73;;;;;;;20.00;100.00;100509.09;5058646;28;20059;-87
2023/09/22 06:40:49;;;;;;;3.30;1.35;;;;;;;19.57;100.00;100383.75;5054103;28;20505;-83
2023/09/22 06:43:15;;;;;;;8.77;3.33;;;;;;;20.29;100.00;100457.34;5062680;28;20052;-89
2023/09/22 06:45:41;;;;;;;1.20;1.08;;;;;;;20.38;100.00;100470.31;5066738;28;20056;-86
2023/09/22 06:48:06;;;;;;;2.67;2.45;;;;;;;20.20;100.00;100501.19;5045910;28;20187;-88
2023/09/22 06:50:36;;;;;;;5.68;1.40;;;;;;;19.80;100.00;100393.53;5061626;28;20115;-89
2023/09/22 06:53:05;;;;;;;0.52;0.52;;;;;;;20.52;100.00;100487.56;5060096;28;20512;-88
2023/09/22 06:55:31;;;;;;;0.60;0.60;;;;;;;20.21;100.00;100433.69;5066190;28;20052;-88
2023/09/22 06:57:59;;;;;;;1.98;1.73;;;;;;;20.71;100.00;100498.38;5066913;28;20071;-87
2023/09/22 07:00:28;;;;;;;2.08;1.88;;;;;;;20.88;100.00;100509.22;5066895;28;20114;-84
2023/09/22 07:02:54;;;;;;;1.15;0.93;;;;;;;20.96;100.00;100500.91;5064359;28;20765;-84
2023/09/22 07:05:20;;;;;;;1.50;1.40;;;;;;;20.90;100.00;100488.69;5041588;28;20039;-85
2023/09/22 07:07:47;;;;;;;1.75;1.45;;;;;;;21.57;100.00;100510.81;5056733;28;20493;-72
2023/09/22 07:10:12;;;;;;;0.73;0.73;;;;;;;21.19;100.00;100419.84;5058088;28;20086;-73
2023/09/22 07:12:39;;;;;;;0.80;0.57;;;;;;;21.54;100.00;100393.44;5060257;28;20036;-74
2023/09/22 07:15:06;;;;;;;1.40;1.17;;;;;;;21.78;100.00;100483.13;5056944;28;20061;-72
2023/09/22 07:17:32;;;;;;;1.25;0.98;;;;;;;22.54;100.00;100493.84;5034210;28;20049;-72
2023/09/22 07:20:00;;;;;;;1.60;1.10;;;;;;;21.92;100.00;100494.06;5060328;28;20131;-73
2023/09/22 07:22:25;;;;;;;1.33;1.23;;;;;;;21.51;100.00;100399.78;5059999;28;20771;-71
2023/09/22 07:24:51;;;;;;;0.93;0.85;;;;;;;22.45;100.00;100430.13;5056140;28;20121;-72
2023/09/22 07:27:17;;;;;;;1.15;1.05;;;;;;;22.55;100.00;100482.25;5055825;28;20536;-73
2023/09/22 07:29:43;;;;;;;1.00;0.88;;;;;;;22.53;100.00;100434.16;5032661;28;20024;-75
2023/09/22 07:32:08;;;;;;;0.95;0.82;;;;;;;22.78;100.00;100481.13;5052802;28;20475;-74
2023/09/22 07:34:34;;;;;;;2.75;2.55;;;;;;;22.82;100.00;100497.88;5039023;28;20449;-74
2023/09/22 07:36:59;;;;;;;4.05;3.65;;;;;;;22.32;100.00;100411.16;5056522;28;20060;-74
2023/09/22 07:39:25;;;;;;;1.25;1.15;;;;;;;21.83;100.00;100426.81;5059491;28;20036;-73
2023/09/22 07:41:50;;;;;;;1.13;1.02;;;;;;;21.24;100.00;100348.50;5056759;28;20040;-74
2023/09/22 07:44:21;;;;;;;1.45;1.35;;;;;;;22.36;100.00;100509.00;5065350;28;20050;-73
2023/09/22 07:46:48;;;;;;;1.85;1.65;;;;;;;22.30;100.00;100411.22;5058973;28;20040;-73
2023/09/22 07:49:14;;;;;;;2.03;1.50;;;;;;;23.19;100.00;100499.59;5056520;28;20064;-74
2023/09/22 07:51:39;;;;;;;1.92;1.75;;;;;;;23.29;100.00;100503.50;5037484;28;20064;-73
2023/09/22 07:54:05;;;;;;;2.38;2.17;;;;;;;23.24;100.00;100494.84;5037750;28;20499;-73
2023/09/22 07:56:32;;;;;;;1.17;1.08;;;;;;;22.88;100.00;100444.06;5052737;28;20101;-75
2023/09/22 07:58:58;;;;;;;5.13;2.58;;;;;;;22.58;100.00;100476.72;5052214;28;20051;-73
2023/09/22 08:01:24;;;;;;;1.58;1.48;;;;;;;22.30;100.00;100416.56;5061086;28;20412;-74
2023/09/22 08:03:51;;;;;;;1.25;0.88;;;;;;;22.50;100.00;100431.66;5059354;28;20087;-72
2023/09/22 08:06:17;;;;;;;2.13;1.45;;;;;;;22.74;100.00;100418.84;5058095;28;20140;-74
2023/09/22 08:08:43;;;;;;;0.82;0.65;;;;;;;23.24;100.00;100508.25;5063221;28;20021;-72
2023/09/22 08:11:08;;;;;;;1.80;1.50;;;;;;;22.96;100.00;100421.28;5036816;28;20036;-72
2023/09/22 08:13:35;;;;;;;1.08;0.98;;;;;;;23.20;100.00;100420.97;5051324;28;20049;-74
2023/09/22 08:16:04;;;;;;;1.60;0.75;;;;;;;23.72;100.00;100509.31;5057411;28;20416;-74
2023/09/22 08:18:37;;;;;;;2.60;2.15;;;;;;;23.75;100.00;100495.78;5058593;28;20036;-74
2023/09/22 08:21:03;;;;;;;1.85;1.75;;;;;;;23.82;100.00;100495.47;5043905;28;20095;-74
2023/09/22 08:23:29;;;;;;;1.80;1.50;;;;;;;23.87;100.00;100504.13;5054533;28;20120;-71
2023/09/22 08:25:56;;;;;;;3.03;2.15;;;;;;;23.21;100.00;100390.59;5064470;28;20020;-72
2023/09/22 08:28:23;;;;;;;1.50;1.40;;;;;;;23.50;100.00;100425.69;5060959;28;20044;-73
2023/09/22 08:30:49;;;;;;;3.60;3.30;;;;;;;23.58;100.00;100434.19;5061335;28;20342;-72
2023/09/22 08:33:15;;;;;;;2.10;1.52;;;;;;;24.02;100.00;100431.78;5058228;28;20048;-74
2023/09/22 08:35:40;;;;;;;1.30;1.05;;;;;;;23.75;100.00;100414.53;5054257;28;20017;-72
2023/09/22 08:38:06;;;;;;;1.05;0.88;;;;;;;24.26;100.00;100484.97;5060299;28;20574;-72
2023/09/22 08:40:32;;;;;;;2.92;2.25;;;;;;;24.08;100.00;100417.16;5058401;28;20052;-72
2023/09/22 08:42:58;;;;;;;3.33;2.47;;;;;;;24.39;100.00;100483.31;5057197;28;20163;-72
2023/09/22 08:45:24;;;;;;;2.70;1.88;;;;;;;24.39;100.00;100483.31;5062018;28;20043;-73
2023/09/22 08:47:50;;;;;;;1.83;1.17;;;;;;;23.80;100.00;100388.34;5068920;28;20049;-74
2023/09/22 08:50:18;;;;;;;1.30;1.20;;;;;;;23.86;100.00;100393.38;5056979;28;20032;-72
2023/09/22 08:52:50;;;;;;;2.28;1.77;;;;;;;24.56;100.00;100484.22;5062044;28;20044;-72
2023/09/22 08:55:16;;;;;;;1.05;0.95;;;;;;;24.19;100.00;100397.78;5060418;28;20044;-74
2023/09/22 08:57:44;;;;;;;2.50;2.30;;;;;;;24.28;100.00;100412.47;5068401;28;20597;-74
2023/09/22 09:00:30;;;;;;;1.63;1.52;;;;;;;24.84;100.00;100478.13;5066597;28;20041;-74
2023/09/22 09:03:07;;;;;;;1.63;1.52;;;;;;;24.82;100.00;100472.84;5061597;28;20047;-73
2023/09/22 09:05:33;;;;;;;1.02;0.93;;;;;;;24.81;100.00;100478.31;5055250;28;20051;-74
2023/09/22 09:08:15;;;;;;;1.70;1.58;;;;;;;25.03;100.00;100462.69;5046618;28;20472;-74
2023/09/22 09:10:46;;;;;;;6.00;1.85;;;;;;;25.10;100.00;100481.09;5054163;28;20056;-74
2023/09/22 09:13:23;;;;;;;3.83;2.08;;;;;;;24.25;100.00;100375.97;5060208;28;20119;-73
2023/09/22 09:15:53;;;;;;;28.70;2.28;;;;;;;24.78;100.00;100395.28;5057457;28;20109;-74
2023/09/22 09:18:20;;;;;;;11.48;5.45;;;;;;;24.84;100.00;100378.81;5053785;28;20044;-74
2023/09/22 09:20:47;;;;;;;3.75;2.08;;;;;;;25.44;100.00;100478.13;5058195;28;20492;-74
2023/09/22 09:23:15;;;;;;;2.13;1.95;;;;;;;24.84;100.00;100378.81;5056651;28;20488;-74
2023/09/22 09:25:51;;;;;;;1.60;1.50;;;;;;;25.26;100.00;100461.34;5051695;28;20098;-74
2023/09/22 09:28:18;;;;;;;14.80;2.58;;;;;;;24.80;100.00;100396.94;5057338;28;20048;-76
2023/09/22 09:31:01;;;;;;;0.68;0.68;;;;;;;25.24;100.00;100417.59;5037872;28;20485;-74
2023/09/22 09:33:30;;;;;;;6.00;2.08;;;;;;;25.15;100.00;100385.88;5064785;28;20510;-73
2023/09/22 09:35:56;;;;;;;0.93;0.85;;;;;;;25.26;100.00;100404.03;5054891;28;20140;-73
2023/09/22 09:38:27;;;;;;;5.65;4.00;;;;;;;25.98;100.00;100466.75;5056820;28;20048;-74
2023/09/22 09:40:54;;;;;;;1.08;0.98;;;;;;;25.51;100.00;100459.81;5039395;28;20044;-72
2023/09/22 09:43:21;;;;;;;1.88;1.77;;;;;;;25.70;100.00;100406.63;5054753;28;20052;-73
2023/09/22 09:45:57;;;;;;;4.68;2.55;;;;;;;26.11;100.00;100448.03;5059077;28;20044;-73
2023/09/22 09:48:24;;;;;;;1.38;0.88;;;;;;;25.61;100.00;100371.41;5062174;28;20045;-73
2023/09/22 09:50:53;;;;;;;1.77;1.67;;;;;;;26.42;100.00;100456.81;5066309;28;20053;-72
2023/09/22 09:53:28;;;;;;;2.00;1.85;;;;;;;25.86;100.00;100366.25;5056979;28;20068;-72
2023/09/22 09:56:02;;;;;;;4.38;2.30;;;;;;;26.23;100.00;100446.38;5053069;28;20136;-71
2023/09/22 09:58:31;;;;;;;2.67;2.25;;;;;;;26.04;100.00;100382.16;5059671;28;20528;-72
2023/09/22 10:01:01;;;;;;;1.48;1.38;;;;;;;26.02;100.00;100417.22;5060802;28;20126;-72
2023/09/22 10:03:29;;;;;;;1.52;1.23;;;;;;;26.16;100.00;100429.75;5061440;28;20040;-77
2023/09/22 10:05:56;;;;;;;0.73;0.57;;;;;;;26.60;100.00;100420.63;5067738;28;20053;-80
2023/09/22 10:08:24;;;;;;;2.75;1.23;;;;;;;26.51;100.00;100379.00;5064886;28;20131;-81
2023/09/22 10:10:52;;;;;;;16.75;1.13;;;;;;;26.77;100.00;100441.03;5070496;28;20060;-81
2023/09/22 10:13:18;;;;;;;2.08;1.67;;;;;;;26.57;100.00;100439.66;5038092;28;20098;-81
2023/09/22 10:16:01;;;;;;;1.52;1.42;;;;;;;26.79;100.00;100443.63;5064175;28;20036;-81
2023/09/22 10:18:46;;;;;;;1.35;1.25;;;;;;;26.93;100.00;100447.09;5050488;28;20478;-81
2023/09/22 10:21:30;;;;;;;1.52;1.35;;;;;;;27.16;100.00;100447.38;5068198;28;20045;-79
2023/09/22 10:24:18;;;;;;;3.08;2.78;;;;;;;27.44;100.00;100449.06;5068302;28;20056;-82
2023/09/22 10:27:07;;;;;;;0.47;0.47;;;;;;;27.56;99.42;100440.09;5064908;28;20480;-79
2023/09/22 10:29:36;;;;;;;3.22;3.03;;;;;;;27.87;94.51;100442.47;5046472;28;20029;-82
2023/09/22 10:32:21;;;;;;;2.03;1.80;;;;;;;28.10;93.71;100440.81;5071738;28;20112;-81
2023/09/22 10:34:58;;;;;;;0.85;0.73;;;;;;;27.39;91.81;100367.63;5046986;28;20392;-80
2023/09/22 10:37:27;;;;;;;1.88;1.73;;;;;;;27.77;92.62;100428.75;5065359;28;20067;-81
2023/09/22 10:40:13;;;;;;;1.70;1.55;;;;;;;27.09;90.93;100282.59;5041995;28;20620;-85
2023/09/22 10:42:42;;;;;;;1.83;1.65;;;;;;;28.02;88.87;100425.16;5068284;28;20492;-81
2023/09/22 10:45:09;;;;;;;14.85;4.78;;;;;;;27.14;86.68;100318.16;5071741;28;20090;-82
2023/09/22 10:47:42;;;;;;;3.22;2.50;;;;;;;27.70;90.55;100395.13;5068923;28;20139;-80
2023/09/22 10:50:19;;;;;;;4.82;4.43;;;;;;;27.34;89.39;100335.63;5071540;28;20557;-80
2023/09/22 10:52:53;;;;;;;0.75;0.75;;;;;;;27.62;86.23;100401.03;5036799;28;20817;-83
2023/09/22 10:55:28;;;;;;;2.25;2.05;;;;;;;28.12;84.08;100404.63;5046811;28;20222;-82
2023/09/22 10:57:55;;;;;;;0.60;0.57;;;;;;;28.18;82.70;100398.78;5059585;28;20128;-82
2023/09/22 11:00:22;;;;;;;5.47;1.77;;;;;;;27.67;84.92;100315.28;5057958;28;20053;-83
2023/09/22 11:02:47;;;;;;;2.20;2.03;;;;;;;27.91;83.48;100318.06;5057898;28;20033;-81
2023/09/22 11:05:19;;;;;;;2.55;2.35;;;;;;;28.06;87.30;100372.72;5026826;28;20110;-82
2023/09/22 11:07:45;;;;;;;1.08;0.98;;;;;;;28.09;87.57;100379.72;5056198;28;20074;-80
2023/09/22 11:10:19;;;;;;;0.68;0.60;;;;;;;27.75;82.48;100318.28;5054269;28;20040;-77
2023/09/22 11:12:49;;;;;;;6.05;2.72;;;;;;;28.38;85.61;100391.91;5040427;28;20793;-76
2023/09/22 11:15:15;;;;;;;0.85;0.85;;;;;;;28.37;83.68;100383.91;5044158;28;20125;-75
2023/09/22 11:17:47;;;;;;;4.22;2.95;;;;;;;28.15;83.83;100303.72;5029015;28;20474;-79
2023/09/22 11:20:27;;;;;;;1.70;1.60;;;;;;;28.99;81.32;100388.25;5055622;28;20511;-80